Time;durP1;ratioP1;P1;durP2;ratioP2;P2;SDS_P1;SDS_P2;PMS_P1;PMS_P2;Temp;Humidity;BMP_temperature;BMP_pressure;BME280_temperature;BME280_humidity;BME280_pressure;Samples;Min_cycle;Max_cycle;Signal;HPM_P1;HPM_P2
2023/07/04 00:01:21;;;;;;;4.87;3.60;;;;;;;16.26;100.00;99768.66;4990495;28;20234;-67
2023/07/04 00:03:50;;;;;;;5.37;3.43;;;;;;;16.03;100.00;99756.78;5001721;28;20178;-68
2023/07/04 00:06:17;;;;;;;7.10;3.87;;;;;;;15.96;100.00;99762.47;5013900;28;20220;-68
2023/07/04 00:08:43;;;;;;;8.93;3.30;;;;;;;15.92;100.00;99763.66;5014016;28;20178;-68
2023/07/04 00:11:09;;;;;;;6.10;3.83;;;;;;;15.95;100.00;99766.00;5001686;28;20230;-68
2023/07/04 00:13:36;;;;;;;5.33;3.93;;;;;;;16.01;100.00;99769.03;4988620;28;20199;-69
2023/07/04 00:16:05;;;;;;;8.00;3.60;;;;;;;15.87;100.00;99758.03;4994126;28;20186;-68
2023/07/04 00:18:31;;;;;;;9.57;3.93;;;;;;;15.83;100.00;99759.22;4994393;28;20252;-68
2023/07/04 00:20:59;;;;;;;5.27;3.83;;;;;;;15.76;100.00;99758.88;4991655;28;20690;-68
2023/07/04 00:23:29;;;;;;;5.60;4.10;;;;;;;15.55;100.00;99761.44;5002940;28;20183;-68
2023/07/04 00:25:55;;;;;;;3.93;3.63;;;;;;;15.55;100.00;99761.44;4994138;28;20255;-68
2023/07/04 00:28:22;;;;;;;5.73;3.73;;;;;;;15.35;100.00;99759.66;5006892;28;20691;-68
2023/07/04 00:30:48;;;;;;;5.63;3.93;;;;;;;15.46;100.00;99770.78;4999823;28;20721;-69
2023/07/04 00:33:16;;;;;;;3.77;3.43;;;;;;;15.55;100.00;99769.22;5006968;28;20591;-67
2023/07/04 00:35:42;;;;;;;5.50;3.70;;;;;;;15.53;100.00;99765.94;5003607;28;20209;-68
2023/07/04 00:38:08;;;;;;;4.60;4.10;;;;;;;15.46;100.00;99778.56;5004264;28;20581;-69
2023/07/04 00:40:34;;;;;;;6.63;4.27;;;;;;;15.39;100.00;99774.81;5007453;28;20308;-68
2023/07/04 00:43:03;;;;;;;5.37;3.90;;;;;;;15.41;100.00;99772.91;5024110;28;20661;-68
2023/07/04 00:45:38;;;;;;;3.80;3.33;;;;;;;15.31;100.00;99780.59;5013126;28;20290;-68
2023/07/04 00:48:06;;;;;;;7.43;4.10;;;;;;;15.09;100.00;99780.66;5013005;28;20365;-69
2023/07/04 00:50:39;;;;;;;5.93;4.20;;;;;;;15.17;100.00;99780.91;5006764;28;20673;-68
2023/07/04 00:53:08;;;;;;;8.23;4.33;;;;;;;14.94;100.00;99780.91;5022954;28;20189;-68
2023/07/04 00:55:37;;;;;;;6.93;4.07;;;;;;;14.99;100.00;99789.13;5012478;28;20262;-69
2023/07/04 00:58:04;;;;;;;6.23;4.47;;;;;;;14.93;100.00;99787.03;5013074;28;20190;-68
2023/07/04 01:00:31;;;;;;;6.70;3.97;;;;;;;14.94;100.00;99783.50;5005333;28;20229;-68
2023/07/04 01:03:10;;;;;;;6.47;4.17;;;;;;;14.81;100.00;99794.00;5024140;28;20170;-69
2023/07/04 01:06:03;;;;;;;6.67;4.73;;;;;;;14.90;100.00;99787.28;5011365;28;20249;-68
2023/07/04 01:08:36;;;;;;;9.70;4.33;;;;;;;14.92;100.00;99789.75;5012789;28;20273;-68
2023/07/04 01:11:05;;;;;;;6.23;4.50;;;;;;;14.85;100.00;99789.41;5010652;28;20297;-68
2023/07/04 01:13:33;;;;;;;6.43;4.40;;;;;;;14.81;100.00;99791.41;5019847;28;20183;-67
2023/07/04 01:16:09;;;;;;;7.50;4.30;;;;;;;14.60;100.00;99798.19;5011711;28;20183;-68
2023/07/04 01:18:35;;;;;;;9.57;4.97;;;;;;;14.71;100.00;99795.66;5012233;28;20195;-68
2023/07/04 01:21:04;;;;;;;7.30;4.60;;;;;;;14.71;100.00;99800.00;5010396;28;20304;-68
2023/07/04 01:23:40;;;;;;;5.93;4.50;;;;;;;14.59;100.00;99794.78;5019208;28;20182;-68
2023/07/04 01:26:23;;;;;;;9.10;4.50;;;;;;;14.71;100.00;99797.41;5012282;28;20247;-68
2023/07/04 01:28:53;;;;;;;9.00;4.50;;;;;;;14.77;100.00;99800.38;4987343;28;20183;-67
2023/07/04 01:31:21;;;;;;;9.83;5.13;;;;;;;14.67;100.00;99802.84;5011139;28;20268;-69
2023/07/04 01:33:48;;;;;;;9.87;5.13;;;;;;;14.82;100.00;99800.84;5017414;28;20237;-68
2023/07/04 01:36:16;;;;;;;9.87;4.90;;;;;;;14.81;100.00;99803.50;5010767;28;20618;-68
2023/07/04 01:38:41;;;;;;;6.60;4.77;;;;;;;14.65;100.00;99804.72;5002978;28;20178;-68
2023/07/04 01:41:07;;;;;;;5.83;4.50;;;;;;;14.56;100.00;99812.31;5007813;28;20225;-68
2023/07/04 01:43:32;;;;;;;9.23;4.57;;;;;;;14.47;100.00;99816.44;5010534;28;20183;-68
2023/07/04 01:45:59;;;;;;;5.77;4.57;;;;;;;14.53;100.00;99816.78;5009877;28;20654;-68
2023/07/04 01:48:24;;;;;;;6.70;4.60;;;;;;;14.29;100.00;99816.88;5011373;28;20183;-69
2023/07/04 01:50:50;;;;;;;10.50;4.77;;;;;;;14.17;100.00;99823.78;5006543;28;20351;-68
2023/07/04 01:53:15;;;;;;;6.77;4.70;;;;;;;14.11;100.00;99816.47;5020785;28;20258;-69
2023/07/04 01:55:41;;;;;;;7.87;4.90;;;;;;;14.22;100.00;99823.44;5010869;28;20187;-69
2023/07/04 01:58:06;;;;;;;8.23;4.40;;;;;;;14.13;100.00;99829.31;5012480;28;20221;-69
2023/07/04 02:00:31;;;;;;;8.03;4.53;;;;;;;14.15;100.00;99837.75;5004892;28;20240;-69
2023/07/04 02:02:57;;;;;;;9.83;4.40;;;;;;;14.14;100.00;99834.34;5023384;28;20175;-69
2023/07/04 02:05:22;;;;;;;11.23;5.10;;;;;;;14.06;100.00;99841.03;5011092;28;20303;-69
2023/07/04 02:07:48;;;;;;;7.63;4.17;;;;;;;13.96;100.00;99839.09;5011940;28;20174;-69
2023/07/04 02:10:13;;;;;;;6.53;4.60;;;;;;;14.03;100.00;99842.91;5002694;28;20232;-69
2023/07/04 02:12:38;;;;;;;6.73;4.47;;;;;;;14.02;100.00;99843.81;5026269;28;20186;-69
2023/07/04 02:15:04;;;;;;;9.43;4.63;;;;;;;14.02;100.00;99846.41;5000577;28;20182;-70
2023/07/04 02:17:30;;;;;;;9.27;4.93;;;;;;;13.92;100.00;99844.59;4998106;28;20301;-69
2023/07/04 02:19:55;;;;;;;10.13;4.60;;;;;;;13.94;100.00;99838.41;4992775;28;20576;-69
2023/07/04 02:25:42;;;;;;;10.57;4.97;;;;;;;13.90;100.00;99855.06;4994373;28;20584;-69
2023/07/04 02:28:09;;;;;;;8.77;5.30;;;;;;;13.84;100.00;99856.34;5010510;28;20222;-68
2023/07/04 02:30:34;;;;;;;7.93;4.90;;;;;;;13.82;100.00;99853.03;4999023;28;20348;-69
2023/07/04 02:33:00;;;;;;;6.43;4.23;;;;;;;13.87;100.00;99856.13;5016220;28;20250;-69
2023/07/04 02:35:26;;;;;;;8.87;4.63;;;;;;;13.97;100.00;99861.44;4985553;28;20552;-69
2023/07/04 02:37:51;;;;;;;9.77;4.60;;;;;;;13.91;100.00;99856.72;5001671;28;20218;-69
2023/07/04 02:40:16;;;;;;;7.13;4.23;;;;;;;13.97;100.00;99853.69;5003284;28;20193;-70
2023/07/04 02:42:42;;;;;;;8.13;4.40;;;;;;;14.08;100.00;99862.41;5024881;28;20701;-68
2023/07/04 02:45:08;;;;;;;6.67;4.80;;;;;;;14.09;100.00;99853.72;4991662;28;20203;-69
2023/07/04 02:47:34;;;;;;;7.80;4.47;;;;;;;14.03;100.00;99852.44;4992332;28;20191;-69
2023/07/04 02:49:59;;;;;;;10.50;5.63;;;;;;;14.06;100.00;99851.38;4992852;28;20548;-69
2023/07/04 02:52:25;;;;;;;8.37;4.97;;;;;;;14.07;100.00;99848.66;4980879;28;20227;-69
2023/07/04 02:54:51;;;;;;;8.07;4.70;;;;;;;14.06;100.00;99856.56;4991525;28;20676;-69
2023/07/04 02:57:17;;;;;;;10.17;5.00;;;;;;;14.07;100.00;99851.25;4991887;28;20176;-68
2023/07/04 02:59:43;;;;;;;7.17;4.70;;;;;;;14.12;100.00;99850.94;4979462;28;20183;-68
2023/07/04 03:02:08;;;;;;;6.83;4.00;;;;;;;14.04;100.00;99852.31;4971557;28;20226;-68
2023/07/04 03:04:33;;;;;;;7.43;4.67;;;;;;;14.11;100.00;99854.44;4991975;28;20639;-67
2023/07/04 03:06:59;;;;;;;9.00;4.70;;;;;;;14.12;100.00;99861.28;4992420;28;20203;-69
2023/07/04 03:09:24;;;;;;;12.53;4.67;;;;;;;13.87;100.00;99853.53;4991713;28;20187;-68
2023/07/04 03:11:49;;;;;;;8.63;5.07;;;;;;;13.93;100.00;99852.28;4995317;28;20218;-68
2023/07/04 03:14:15;;;;;;;11.17;5.10;;;;;;;13.80;100.00;99849.72;4991807;28;20202;-67
2023/07/04 03:16:40;;;;;;;9.73;5.00;;;;;;;13.93;100.00;99856.59;4993980;28;20292;-68
2023/07/04 03:19:05;;;;;;;10.93;4.87;;;;;;;13.92;100.00;99862.69;4996043;28;20594;-68
2023/07/04 03:21:30;;;;;;;13.10;4.90;;;;;;;13.75;100.00;99856.19;4993622;28;20242;-68
2023/07/04 03:23:55;;;;;;;10.13;4.93;;;;;;;13.85;100.00;99858.00;4996946;28;20180;-68
2023/07/04 03:26:21;;;;;;;7.13;5.23;;;;;;;13.84;100.00;99861.53;4991446;28;20215;-68
2023/07/04 03:28:46;;;;;;;8.87;5.10;;;;;;;13.85;100.00;99857.16;5011020;28;20171;-68
2023/07/04 03:31:11;;;;;;;8.23;5.30;;;;;;;13.62;100.00;99856.22;4989901;28;20230;-68
2023/07/04 03:33:36;;;;;;;9.43;5.33;;;;;;;13.71;100.00;99853.81;5017721;28;20237;-68
2023/07/04 03:36:02;;;;;;;8.53;5.00;;;;;;;13.77;100.00;99846.53;5010698;28;20187;-68
2023/07/04 03:38:28;;;;;;;7.77;5.37;;;;;;;13.75;100.00;99853.59;5003186;28;20191;-68
2023/07/04 03:40:53;;;;;;;11.03;5.20;;;;;;;13.85;100.00;99858.00;5006661;28;20276;-69
2023/07/04 03:43:19;;;;;;;8.63;5.50;;;;;;;13.84;100.00;99850.34;5013330;28;20178;-68
2023/07/04 03:45:45;;;;;;;12.47;5.20;;;;;;;13.90;100.00;99854.25;5001655;28;20210;-69
2023/07/04 03:48:10;;;;;;;8.10;5.23;;;;;;;13.84;100.00;99855.50;5014752;28;20261;-69
2023/07/04 03:50:37;;;;;;;10.77;5.50;;;;;;;13.90;100.00;99855.06;5008612;28;20310;-69
2023/07/04 03:53:02;;;;;;;10.37;5.37;;;;;;;13.97;100.00;99858.03;5022279;28;20277;-69
2023/07/04 03:55:27;;;;;;;10.60;5.70;;;;;;;14.00;100.00;99855.22;5013020;28;20278;-69
2023/07/04 03:57:53;;;;;;;10.17;5.10;;;;;;;14.06;100.00;99857.38;5009108;28;20634;-69
2023/07/04 04:00:18;;;;;;;10.57;5.57;;;;;;;14.11;100.00;99868.19;4987101;28;20286;-69
2023/07/04 04:02:43;;;;;;;10.80;5.37;;;;;;;14.22;100.00;99864.00;5008027;28;20623;-69
2023/07/04 04:05:09;;;;;;;17.20;6.17;;;;;;;14.24;100.00;99862.97;4994354;28;20199;-69
2023/07/04 04:07:34;;;;;;;9.73;5.17;;;;;;;14.26;100.00;99862.84;4994600;28;20199;-68
2023/07/04 04:09:59;;;;;;;11.10;5.20;;;;;;;14.33;100.00;99866.63;4994836;28;20552;-69
2023/07/04 04:12:24;;;;;;;9.60;5.37;;;;;;;14.41;100.00;99871.22;4999696;28;20237;-68
2023/07/04 04:14:50;;;;;;;10.70;5.57;;;;;;;14.50;100.00;99875.72;5003000;28;20185;-68
2023/07/04 04:17:16;;;;;;;16.47;5.13;;;;;;;14.56;100.00;99877.84;5013131;28;20206;-69
2023/07/04 04:19:41;;;;;;;10.93;5.37;;;;;;;14.52;100.00;99876.44;5013773;28;20241;-70
2023/07/04 04:22:06;;;;;;;8.17;5.43;;;;;;;14.62;100.00;99886.91;4999299;28;20227;-68
2023/07/04 04:24:31;;;;;;;9.10;5.43;;;;;;;14.69;100.00;99878.59;4985238;28;20179;-68
2023/07/04 04:27:00;;;;;;;9.57;5.27;;;;;;;14.82;100.00;99886.28;4998925;28;20238;-69
2023/07/04 04:29:26;;;;;;;10.83;6.07;;;;;;;14.91;100.00;99891.69;5002564;28;20210;-68
2023/07/04 04:31:51;;;;;;;12.77;5.80;;;;;;;14.97;100.00;99891.22;4998495;28;20226;-69
2023/07/04 04:34:17;;;;;;;10.43;5.07;;;;;;;14.95;100.00;99895.72;5006561;28;20206;-67
2023/07/04 04:36:42;;;;;;;10.97;5.53;;;;;;;14.97;100.00;99901.56;5012693;28;20548;-68
2023/07/04 04:39:07;;;;;;;9.70;5.27;;;;;;;15.13;100.00;99899.47;5005746;28;20555;-69
2023/07/04 04:41:33;;;;;;;9.97;5.23;;;;;;;15.22;100.00;99903.13;5014887;28;20210;-69
2023/07/04 04:44:01;;;;;;;8.50;5.20;;;;;;;15.26;100.00;99903.72;5017525;28;20178;-68
2023/07/04 04:46:27;;;;;;;14.50;4.93;;;;;;;15.45;100.00;99903.91;5013099;28;20225;-68
2023/07/04 04:48:52;;;;;;;12.13;5.67;;;;;;;15.37;100.00;99908.03;5013783;28;20182;-71
2023/07/04 04:51:22;;;;;;;14.00;5.83;;;;;;;15.48;100.00;99911.47;5003143;28;20218;-70
2023/07/04 04:53:48;;;;;;;10.37;5.53;;;;;;;15.48;100.00;99915.84;5018588;28;20178;-69
2023/07/04 04:56:13;;;;;;;7.70;4.80;;;;;;;15.73;100.00;99924.28;5012015;28;20183;-68
2023/07/04 04:58:45;;;;;;;12.63;5.43;;;;;;;15.90;100.00;99917.75;5013325;28;20623;-69
2023/07/04 05:01:16;;;;;;;11.57;5.67;;;;;;;16.04;100.00;99921.84;5012051;28;20230;-68
2023/07/04 05:03:42;;;;;;;10.77;5.23;;;;;;;16.17;100.00;99919.09;5016575;28;20245;-69
2023/07/04 05:06:08;;;;;;;10.97;5.47;;;;;;;16.39;100.00;99924.16;4993590;28;20207;-69
2023/07/04 05:08:34;;;;;;;11.10;6.07;;;;;;;16.25;100.00;99925.31;5007421;28;20634;-69
2023/07/04 05:11:06;;;;;;;8.50;4.87;;;;;;;16.48;100.00;99929.56;5010644;28;20226;-68
2023/07/04 05:13:32;;;;;;;11.37;5.40;;;;;;;16.64;100.00;99927.34;5019311;28;20193;-68
2023/07/04 05:15:59;;;;;;;10.33;5.17;;;;;;;16.69;100.00;99932.97;5012373;28;20233;-69
2023/07/04 05:18:24;;;;;;;7.80;4.93;;;;;;;16.92;100.00;99925.09;5012149;28;20644;-69
2023/07/04 05:20:59;;;;;;;7.10;4.50;;;;;;;16.88;100.00;99928.84;5009270;28;20226;-69
2023/07/04 05:23:24;;;;;;;8.53;4.60;;;;;;;17.17;100.00;99926.41;5010809;28;20191;-70
2023/07/04 05:26:01;;;;;;;8.50;4.67;;;;;;;17.29;100.00;99937.56;5012440;28;20194;-70
2023/07/04 05:28:27;;;;;;;10.07;4.30;;;;;;;17.59;100.00;99936.69;5012441;28;20218;-69
2023/07/04 05:31:08;;;;;;;10.87;5.37;;;;;;;17.61;100.00;99935.72;4999514;28;20321;-69
2023/07/04 05:33:34;;;;;;;12.80;5.37;;;;;;;17.83;100.00;99935.50;5000099;28;20214;-69
2023/07/04 05:36:03;;;;;;;13.97;5.10;;;;;;;17.98;100.00;99933.34;4993525;28;20175;-69
2023/07/04 05:38:28;;;;;;;7.13;4.67;;;;;;;18.13;100.00;99936.34;4983836;28;20271;-68
2023/07/04 05:40:53;;;;;;;9.27;4.93;;;;;;;18.39;100.00;99930.59;4989645;28;20309;-69
2023/07/04 05:43:19;;;;;;;9.53;5.10;;;;;;;18.36;100.00;99933.50;5007209;28;20201;-68
2023/07/04 05:45:51;;;;;;;9.80;4.73;;;;;;;18.43;100.00;99934.59;5011556;28;20253;-69
2023/07/04 05:48:17;;;;;;;7.87;5.03;;;;;;;18.72;100.00;99938.94;5011224;28;20179;-68
2023/07/04 05:50:56;;;;;;;10.30;5.00;;;;;;;18.39;100.00;99938.41;5006106;28;20397;-68
2023/07/04 05:53:24;;;;;;;8.03;4.60;;;;;;;18.74;100.00;99936.16;5009506;28;20179;-68
2023/07/04 05:55:51;;;;;;;9.10;4.63;;;;;;;18.69;100.00;99939.19;5009807;28;20191;-69
2023/07/04 05:58:17;;;;;;;12.30;5.07;;;;;;;18.75;99.52;99937.81;5011090;28;20524;-69
2023/07/04 06:00:43;;;;;;;8.10;4.70;;;;;;;19.00;97.69;99937.22;5000512;28;20330;-69
2023/07/04 06:03:08;;;;;;;10.03;4.80;;;;;;;19.71;93.88;99941.97;5020599;28;20183;-69
2023/07/04 06:05:40;;;;;;;10.73;4.93;;;;;;;20.34;90.86;99941.09;5006466;28;20602;-69
2023/07/04 06:08:06;;;;;;;10.33;4.70;;;;;;;21.01;86.22;99940.63;5009889;28;20519;-69
2023/07/04 06:10:32;;;;;;;8.37;4.83;;;;;;;20.84;87.69;99944.94;4999722;28;20245;-68
2023/07/04 06:12:57;;;;;;;7.17;4.50;;;;;;;21.30;83.72;99955.13;4995606;28;20164;-69
2023/07/04 06:15:23;;;;;;;8.73;4.50;;;;;;;22.00;78.26;99956.63;4989627;28;20211;-69
2023/07/04 06:17:48;;;;;;;12.57;4.20;;;;;;;23.16;71.23;99956.59;4992565;28;20179;-69
2023/07/04 06:20:14;;;;;;;11.57;4.47;;;;;;;24.52;60.31;99951.00;4983530;28;20699;-67
2023/07/04 06:22:39;;;;;;;8.90;4.17;;;;;;;25.35;54.10;99958.84;5006326;28;20183;-68
2023/07/04 06:25:06;;;;;;;10.87;3.87;;;;;;;25.17;52.00;99956.56;5004941;28;20218;-68
2023/07/04 06:27:31;;;;;;;8.38;4.30;;;;;;;26.00;48.53;99958.94;5010494;28;20218;-69
2023/07/04 06:29:56;;;;;;;9.00;4.10;;;;;;;26.62;44.57;99965.38;4995178;28;20175;-69
2023/07/04 06:32:22;;;;;;;8.02;3.80;;;;;;;26.14;47.38;99963.38;4996992;28;20230;-69
2023/07/04 06:34:47;;;;;;;6.57;3.22;;;;;;;26.88;45.76;99969.22;4991563;28;20214;-69
2023/07/04 06:37:13;;;;;;;13.93;4.20;;;;;;;26.52;43.96;99970.16;4991159;28;20561;-69
2023/07/04 06:39:38;;;;;;;7.38;3.95;;;;;;;27.12;43.37;99967.13;4992166;28;20182;-69
2023/07/04 06:42:03;;;;;;;11.85;4.25;;;;;;;27.39;42.55;99966.19;4997603;28;20257;-69
2023/07/04 06:44:29;;;;;;;9.13;3.58;;;;;;;27.93;40.33;99974.28;5006417;28;20186;-69
2023/07/04 06:46:54;;;;;;;6.30;3.33;;;;;;;28.88;37.23;99977.78;5011403;28;20198;-70
2023/07/04 06:49:19;;;;;;;6.82;3.83;;;;;;;28.22;37.15;99985.56;5011118;28;20260;-70
2023/07/04 06:51:44;;;;;;;7.20;3.97;;;;;;;29.02;36.52;99983.84;5014544;28;20793;-69
2023/07/04 06:54:10;;;;;;;11.20;3.28;;;;;;;29.37;35.62;99979.06;5011929;28;20179;-69
2023/07/04 06:56:37;;;;;;;7.15;4.03;;;;;;;29.19;36.67;99990.31;5010712;28;20179;-69
2023/07/04 06:59:03;;;;;;;5.68;3.53;;;;;;;27.96;37.56;99991.56;5009549;28;20218;-69
2023/07/04 07:01:28;;;;;;;7.50;3.50;;;;;;;28.29;35.75;99990.84;5001309;28;20249;-69
2023/07/04 07:03:54;;;;;;;9.20;3.17;;;;;;;28.87;33.69;99987.56;5013389;28;20258;-69
2023/07/04 07:06:20;;;;;;;8.38;3.33;;;;;;;29.75;32.75;99993.34;5008384;28;20253;-68
2023/07/04 07:08:46;;;;;;;8.55;3.38;;;;;;;29.89;33.42;99989.59;5009318;28;20553;-69
2023/07/04 07:11:14;;;;;;;13.07;3.20;;;;;;;30.34;32.83;99990.50;5000526;28;20308;-68
2023/07/04 07:13:40;;;;;;;11.73;3.72;;;;;;;30.39;33.47;100001.28;4987407;28;20190;-68
2023/07/04 07:16:08;;;;;;;8.25;3.58;;;;;;;31.09;30.98;100002.13;4993536;28;20234;-68
2023/07/04 07:18:34;;;;;;;8.45;3.60;;;;;;;30.52;30.68;100003.06;5005287;28;20183;-68
2023/07/04 07:21:04;;;;;;;7.10;3.47;;;;;;;30.19;31.39;99998.78;5011750;28;20307;-68
2023/07/04 07:23:31;;;;;;;9.15;3.45;;;;;;;30.25;32.49;100003.25;5020764;28;20197;-68
2023/07/04 07:25:58;;;;;;;8.05;3.15;;;;;;;28.01;34.25;99999.75;5014100;28;20195;-69
2023/07/04 07:28:25;;;;;;;7.32;3.78;;;;;;;28.15;34.11;99995.31;5010405;28;20772;-69
2023/07/04 07:31:04;;;;;;;9.80;3.10;;;;;;;30.42;32.56;99996.34;4980927;28;20321;-69
2023/07/04 07:33:32;;;;;;;6.70;3.42;;;;;;;30.95;30.46;100009.38;5021633;28;20195;-69
2023/07/04 07:35:59;;;;;;;12.25;3.05;;;;;;;31.38;30.79;100014.63;5011482;28;20230;-69
2023/07/04 07:38:24;;;;;;;10.40;3.55;;;;;;;31.91;28.80;100017.63;5013321;28;20194;-68
2023/07/04 07:40:53;;;;;;;5.53;3.42;;;;;;;32.14;28.43;100016.88;4978777;28;20325;-69
2023/07/04 07:43:19;;;;;;;36.17;4.57;;;;;;;33.57;27.48;100016.81;5004987;28;20266;-69
2023/07/04 07:45:47;;;;;;;9.18;3.50;;;;;;;33.40;26.13;100024.75;4995999;28;20295;-68
2023/07/04 07:48:13;;;;;;;6.32;3.08;;;;;;;34.15;25.72;100022.91;4996571;28;20241;-68
2023/07/04 07:50:40;;;;;;;7.93;3.95;;;;;;;32.71;27.13;100020.06;4991015;28;20313;-68
2023/07/04 07:53:06;;;;;;;12.02;3.58;;;;;;;33.18;27.24;100016.53;5005264;28;20273;-68
2023/07/04 07:55:31;;;;;;;7.00;3.70;;;;;;;33.31;25.73;100017.09;4994978;28;20243;-69
2023/07/04 07:57:56;;;;;;;9.30;3.30;;;;;;;31.53;28.11;100018.72;4993655;28;20654;-68
2023/07/04 08:00:22;;;;;;;6.03;3.10;;;;;;;31.53;28.93;100008.09;4987745;28;20220;-69
2023/07/04 08:02:47;;;;;;;6.40;3.45;;;;;;;32.05;27.67;100012.91;4995012;28;20188;-69
2023/07/04 08:05:12;;;;;;;38.95;4.95;;;;;;;30.99;29.31;100006.06;4995735;28;20278;-68
2023/07/04 08:07:38;;;;;;;10.70;3.50;;;;;;;30.47;30.08;100003.66;4994936;28;20553;-69
2023/07/04 08:10:03;;;;;;;7.65;2.97;;;;;;;32.48;28.72;100000.38;4987849;28;20206;-68
2023/07/04 08:12:28;;;;;;;17.33;3.40;;;;;;;33.33;26.16;100008.91;5009241;28;20619;-68
2023/07/04 08:14:54;;;;;;;5.97;2.90;;;;;;;32.61;25.76;100008.16;4994849;28;20211;-69
2023/07/04 08:17:21;;;;;;;7.32;3.30;;;;;;;33.33;25.85;100005.41;4994863;28;20183;-68
2023/07/04 08:19:46;;;;;;;5.20;3.20;;;;;;;35.35;23.65;100013.59;4994734;28;20179;-68
2023/07/04 08:22:11;;;;;;;7.78;3.85;;;;;;;34.21;24.03;100011.25;5003217;28;20226;-69
2023/07/04 08:24:37;;;;;;;9.48;3.30;;;;;;;33.46;25.52;100013.13;4997193;28;20179;-70
2023/07/04 08:27:04;;;;;;;7.10;3.40;;;;;;;34.00;24.13;100011.97;5001770;28;20230;-69
2023/07/04 08:29:29;;;;;;;5.30;3.35;;;;;;;33.50;24.76;100016.94;5013773;28;20667;-69
2023/07/04 08:31:55;;;;;;;12.30;3.90;;;;;;;33.00;25.75;100007.66;4999696;28;20222;-69
2023/07/04 08:34:20;;;;;;;7.95;3.20;;;;;;;33.66;25.12;100002.03;4994678;28;20239;-69
2023/07/04 08:36:45;;;;;;;6.30;3.33;;;;;;;34.05;23.88;100007.53;4994452;28;20691;-69
2023/07/04 08:39:11;;;;;;;4.43;3.10;;;;;;;33.67;24.63;100006.31;4994466;28;20358;-69
2023/07/04 08:41:42;;;;;;;6.30;3.35;;;;;;;34.35;24.23;100005.63;4996294;28;20219;-69
2023/07/04 08:44:47;;;;;;;13.85;3.85;;;;;;;31.26;28.07;100002.31;4996768;28;20223;-68
2023/07/04 08:47:25;;;;;;;6.13;3.30;;;;;;;31.49;28.55;99996.28;4974181;28;20305;-68
2023/07/04 08:50:11;;;;;;;5.03;3.03;;;;;;;33.07;25.39;99997.69;4986007;28;20196;-68
2023/07/04 08:52:44;;;;;;;5.88;3.30;;;;;;;33.58;24.44;100002.44;4962633;28;20227;-69
2023/07/04 08:55:13;;;;;;;7.35;2.80;;;;;;;32.80;25.85;100003.53;4972161;28;20191;-69
2023/07/04 08:57:59;;;;;;;4.40;2.90;;;;;;;30.38;28.77;99997.03;4972667;28;20192;-68
2023/07/04 09:00:38;;;;;;;9.00;3.60;;;;;;;30.16;28.72;99994.72;4962377;28;20422;-69
2023/07/04 09:03:19;;;;;;;6.43;3.33;;;;;;;31.44;27.92;99994.31;4972781;28;20192;-69
2023/07/04 09:06:03;;;;;;;77.00;6.63;;;;;;;31.20;26.92;99999.50;4971865;28;20231;-67
2023/07/04 09:08:47;;;;;;;6.40;3.00;;;;;;;31.66;27.97;99999.97;4972353;28;20242;-69
2023/07/04 09:11:16;;;;;;;11.73;2.95;;;;;;;33.13;25.85;99995.94;4962150;28;20235;-69
2023/07/04 09:13:49;;;;;;;45.03;4.43;;;;;;;31.62;26.58;99996.13;4972086;28;20234;-69
2023/07/04 09:16:22;;;;;;;6.07;3.05;;;;;;;31.69;28.17;99993.38;4981045;28;20282;-68
2023/07/04 09:18:59;;;;;;;4.95;3.08;;;;;;;32.34;26.62;99992.63;4991096;28;20192;-69
2023/07/04 09:21:25;;;;;;;6.22;3.35;;;;;;;33.62;24.53;99992.88;4969503;28;20239;-69
2023/07/04 09:23:52;;;;;;;5.55;3.28;;;;;;;33.09;24.83;99994.78;5002976;28;20194;-69
2023/07/04 09:26:26;;;;;;;7.95;3.30;;;;;;;33.76;24.07;100002.19;5012063;28;20214;-69
2023/07/04 09:28:53;;;;;;;4.80;3.25;;;;;;;32.74;24.38;99998.31;5012972;28;20179;-69
2023/07/04 09:31:24;;;;;;;9.48;3.40;;;;;;;33.31;24.06;99998.44;4998594;28;20222;-69
2023/07/04 09:33:52;;;;;;;7.75;3.60;;;;;;;33.99;23.76;99999.66;4998120;28;20255;-69
2023/07/04 09:36:19;;;;;;;14.63;3.45;;;;;;;34.96;22.93;99999.53;4992093;28;20187;-68
2023/07/04 09:38:57;;;;;;;5.75;3.00;;;;;;;34.07;22.75;99997.41;4991942;28;20214;-69
2023/07/04 09:41:25;;;;;;;7.35;3.10;;;;;;;33.45;22.94;99999.00;4994219;28;20310;-69
2023/07/04 09:43:55;;;;;;;3.88;3.08;;;;;;;30.37;26.28;99996.19;4998127;28;20213;-68
2023/07/04 09:46:22;;;;;;;7.18;3.47;;;;;;;30.55;27.03;99995.47;4993211;28;20206;-68
2023/07/04 09:48:48;;;;;;;5.32;3.03;;;;;;;31.04;26.08;99990.25;4993648;28;20636;-69
2023/07/04 09:51:30;;;;;;;6.97;3.85;;;;;;;31.56;25.14;99986.41;4992511;28;20304;-69
2023/07/04 09:54:12;;;;;;;5.07;3.20;;;;;;;31.18;26.04;99990.94;4997084;28;20734;-69
2023/07/04 09:56:38;;;;;;;8.23;4.10;;;;;;;32.83;24.80;99981.75;4997645;28;20183;-69
2023/07/04 09:59:12;;;;;;;6.03;3.88;;;;;;;32.46;24.42;99983.84;5006882;28;20191;-69
2023/07/04 10:01:40;;;;;;;7.25;3.70;;;;;;;33.30;23.08;99990.69;4995130;28;20230;-69
2023/07/04 10:04:07;;;;;;;9.35;4.18;;;;;;;33.03;24.24;99982.41;4995695;28;20245;-68
2023/07/04 10:06:33;;;;;;;8.00;3.72;;;;;;;33.89;23.15;99978.94;4992797;28;20757;-70
2023/07/04 10:09:01;;;;;;;7.78;3.78;;;;;;;31.81;24.42;99980.16;4992008;28;20635;-70
2023/07/04 10:11:37;;;;;;;6.68;3.78;;;;;;;31.90;23.58;99964.66;4993415;28;20241;-69
2023/07/04 10:14:13;;;;;;;9.18;4.47;;;;;;;33.39;23.59;99962.63;4994738;28;20186;-68
2023/07/04 10:16:50;;;;;;;6.78;3.97;;;;;;;33.92;22.89;99965.16;4992620;28;20211;-69
2023/07/04 10:19:20;;;;;;;5.63;4.10;;;;;;;35.23;21.79;99972.84;5007514;28;20186;-69
2023/07/04 10:21:48;;;;;;;10.95;4.68;;;;;;;34.70;21.83;99970.56;4993272;28;20292;-69
2023/07/04 10:24:33;;;;;;;4.80;4.28;;;;;;;35.58;20.38;99968.94;4992132;28;20186;-68
2023/07/04 10:27:02;;;;;;;6.22;4.00;;;;;;;34.85;20.73;99972.63;4997315;28;20226;-70
2023/07/04 10:29:45;;;;;;;5.70;4.40;;;;;;;33.99;22.65;99963.13;5000370;28;20325;-70
2023/07/04 10:32:14;;;;;;;6.75;5.20;;;;;;;34.10;21.91;99958.78;4985700;28;20227;-70
2023/07/04 10:34:42;;;;;;;8.73;4.75;;;;;;;33.14;22.40;99958.41;4991960;28;20203;-69
2023/07/04 10:37:16;;;;;;;5.32;4.50;;;;;;;33.86;21.20;99950.09;4993052;28;20191;-70
2023/07/04 10:39:41;;;;;;;6.07;5.13;;;;;;;35.36;20.94;99951.03;4992716;28;20193;-69
2023/07/04 10:42:07;;;;;;;5.80;4.97;;;;;;;34.90;21.23;99962.03;4997251;28;20219;-69
2023/07/04 10:44:34;;;;;;;7.13;5.60;;;;;;;34.67;20.89;99957.72;4991374;28;20195;-69
2023/07/04 10:47:14;;;;;;;5.70;5.13;;;;;;;32.79;21.86;99947.84;4992379;28;20287;-69
2023/07/04 10:49:47;;;;;;;9.63;5.18;;;;;;;31.90;23.88;99941.53;4992449;28;20187;-70
2023/07/04 10:52:17;;;;;;;6.53;5.47;;;;;;;29.19;25.31;99936.53;4998426;28;20317;-69
2023/07/04 10:54:43;;;;;;;9.80;6.15;;;;;;;28.13;26.96;99941.81;4992955;28;20214;-69
2023/07/04 10:57:18;;;;;;;7.55;5.65;;;;;;;28.71;26.98;99938.53;4993222;28;20222;-69
2023/07/04 10:59:46;;;;;;;7.20;5.57;;;;;;;28.63;26.22;99931.59;4993325;28;20189;-68
2023/07/04 11:02:39;;;;;;;7.30;5.32;;;;;;;28.39;26.33;99930.41;4956778;28;20314;-68
2023/07/04 11:05:11;;;;;;;6.93;6.22;;;;;;;27.87;27.29;99927.53;4992964;28;20179;-68
2023/07/04 11:07:42;;;;;;;7.75;6.95;;;;;;;27.82;27.09;99924.69;4994667;28;20557;-68
2023/07/04 11:10:11;;;;;;;8.52;6.22;;;;;;;27.94;27.01;99928.34;4984516;28;20194;-69
2023/07/04 11:12:39;;;;;;;7.88;6.82;;;;;;;27.80;26.44;99916.16;5003496;28;20631;-69
2023/07/04 11:15:18;;;;;;;9.90;6.03;;;;;;;27.94;27.31;99920.41;4981658;28;20191;-69
2023/07/04 11:17:44;;;;;;;5.95;5.35;;;;;;;27.88;28.02;99918.59;4995141;28;20262;-69
2023/07/04 11:20:18;;;;;;;7.05;4.70;;;;;;;27.03;28.67;99916.31;4986754;28;20210;-69
2023/07/04 11:22:50;;;;;;;5.97;5.05;;;;;;;27.45;29.73;99918.91;5007034;28;20182;-68
2023/07/04 11:25:34;;;;;;;6.85;5.30;;;;;;;27.60;28.43;99902.88;4994771;28;20203;-69
2023/07/04 11:28:19;;;;;;;7.45;5.35;;;;;;;27.36;28.09;99905.88;5005391;28;20632;-69
2023/07/04 11:30:48;;;;;;;8.07;6.15;;;;;;;27.46;28.79;99900.25;4951400;28;20231;-69
2023/07/04 11:33:37;;;;;;;5.90;5.28;;;;;;;27.11;28.94;99910.84;4981310;28;21485;-68
2023/07/04 11:36:23;;;;;;;7.72;5.60;;;;;;;26.43;29.12;99903.56;4971590;28;20564;-68